sensor_id;sensor_type;location;lat;lon;timestamp;pressure;altitude;pressure_sealevel;temperature;humidity
5146;BME280;2591;48.144;15.152;2023-02-19T00:01:44;75959.97;;;-144.65;87.48
5146;BME280;2591;48.144;15.152;2023-02-19T00:04:14;75964.06;;;-144.65;88.49
5146;BME280;2591;48.144;15.152;2023-02-19T00:06:43;75966.09;;;-144.65;88.47
5146;BME280;2591;48.144;15.152;2023-02-19T00:09:13;75968.13;;;-144.65;89.58
5146;BME280;2591;48.144;15.152;2023-02-19T00:11:41;75972.22;;;-144.65;90.11
5146;BME280;2591;48.144;15.152;2023-02-19T00:14:10;75976.28;;;-144.65;90.20
5146;BME280;2591;48.144;15.152;2023-02-19T00:16:42;75978.31;;;-144.65;90.79
5146;BME280;2591;48.144;15.152;2023-02-19T00:19:12;75984.44;;;-144.65;91.51
5146;BME280;2591;48.144;15.152;2023-02-19T00:21:40;75968.13;;;-144.65;90.70
5146;BME280;2591;48.144;15.152;2023-02-19T00:24:11;75972.22;;;-144.65;90.72
5146;BME280;2591;48.144;15.152;2023-02-19T00:26:41;75976.28;;;-144.65;91.05
5146;BME280;2591;48.144;15.152;2023-02-19T00:29:11;75984.44;;;-144.65;90.73
5146;BME280;2591;48.144;15.152;2023-02-19T00:31:40;75972.22;;;-144.65;90.78
5146;BME280;2591;48.144;15.152;2023-02-19T00:34:10;75980.34;;;-144.65;90.46
5146;BME280;2591;48.144;15.152;2023-02-19T00:36:39;75992.59;;;-144.65;90.55
5146;BME280;2591;48.144;15.152;2023-02-19T00:39:09;75996.66;;;-144.65;91.15
5146;BME280;2591;48.144;15.152;2023-02-19T00:41:37;75998.72;;;-144.65;91.56
5146;BME280;2591;48.144;15.152;2023-02-19T00:44:06;75998.72;;;-144.65;91.79
5146;BME280;2591;48.144;15.152;2023-02-19T00:46:36;76000.75;;;-144.65;91.79
5146;BME280;2591;48.144;15.152;2023-02-19T00:49:06;76010.94;;;-144.65;92.53
5146;BME280;2591;48.144;15.152;2023-02-19T00:51:36;76017.06;;;-144.65;93.22
5146;BME280;2591;48.144;15.152;2023-02-19T00:54:05;76021.13;;;-144.65;94.51
5146;BME280;2591;48.144;15.152;2023-02-19T00:56:33;76027.25;;;-144.65;96.01
5146;BME280;2591;48.144;15.152;2023-02-19T00:59:01;75996.66;;;-144.65;97.46
5146;BME280;2591;48.144;15.152;2023-02-19T01:01:29;76004.81;;;-144.65;99.47
5146;BME280;2591;48.144;15.152;2023-02-19T01:03:57;76015.03;;;-144.65;100.00
5146;BME280;2591;48.144;15.152;2023-02-19T01:06:25;76029.28;;;-144.65;100.00
5146;BME280;2591;48.144;15.152;2023-02-19T01:08:57;76037.44;;;-144.65;100.00
5146;BME280;2591;48.144;15.152;2023-02-19T01:11:25;76049.69;;;-144.65;100.00
5146;BME280;2591;48.144;15.152;2023-02-19T01:13:56;76049.69;;;-144.65;100.00
5146;BME280;2591;48.144;15.152;2023-02-19T01:16:24;76053.75;;;-144.65;100.00
5146;BME280;2591;48.144;15.152;2023-02-19T01:18:53;76061.91;;;-144.65;100.00
5146;BME280;2591;48.144;15.152;2023-02-19T01:21:22;76072.09;;;-144.65;100.00
5146;BME280;2591;48.144;15.152;2023-02-19T01:23:51;76084.34;;;-144.65;100.00
5146;BME280;2591;48.144;15.152;2023-02-19T01:26:22;76094.53;;;-144.65;100.00
5146;BME280;2591;48.144;15.152;2023-02-19T01:28:51;76092.50;;;-144.65;100.00
5146;BME280;2591;48.144;15.152;2023-02-19T01:31:21;76102.69;;;-144.65;100.00
5146;BME280;2591;48.144;15.152;2023-02-19T01:33:51;76108.81;;;-144.65;100.00
5146;BME280;2591;48.144;15.152;2023-02-19T01:36:20;76106.75;;;-144.65;100.00
5146;BME280;2591;48.144;15.152;2023-02-19T01:38:48;76121.03;;;-144.65;100.00
5146;BME280;2591;48.144;15.152;2023-02-19T01:41:18;76119.00;;;-144.65;100.00
5146;BME280;2591;48.144;15.152;2023-02-19T01:44:00;76110.84;;;-144.65;100.00
5146;BME280;2591;48.144;15.152;2023-02-19T01:46:29;76119.00;;;-144.65;100.00
5146;BME280;2591;48.144;15.152;2023-02-19T01:49:01;76112.88;;;-144.65;100.00
5146;BME280;2591;48.144;15.152;2023-02-19T01:51:31;76119.00;;;-144.65;100.00
5146;BME280;2591;48.144;15.152;2023-02-19T01:54:01;76121.03;;;-144.65;100.00
5146;BME280;2591;48.144;15.152;2023-02-19T01:56:32;76123.06;;;-144.65;100.00
5146;BME280;2591;48.144;15.152;2023-02-19T01:59:03;76119.00;;;-144.65;100.00
5146;BME280;2591;48.144;15.152;2023-02-19T02:01:31;76133.25;;;-144.65;100.00
5146;BME280;2591;48.144;15.152;2023-02-19T02:03:59;76127.16;;;-144.65;100.00
5146;BME280;2591;48.144;15.152;2023-02-19T02:06:29;76129.19;;;-144.65;100.00
5146;BME280;2591;48.144;15.152;2023-02-19T02:08:59;76131.22;;;-144.65;100.00
5146;BME280;2591;48.144;15.152;2023-02-19T02:11:48;76127.16;;;-144.65;100.00
5146;BME280;2591;48.144;15.152;2023-02-19T02:14:19;76123.06;;;-144.65;100.00
5146;BME280;2591;48.144;15.152;2023-02-19T02:16:54;76127.16;;;-144.65;100.00
5146;BME280;2591;48.144;15.152;2023-02-19T02:19:33;76127.16;;;-144.65;100.00
5146;BME280;2591;48.144;15.152;2023-02-19T02:22:12;76127.16;;;-144.65;100.00
5146;BME280;2591;48.144;15.152;2023-02-19T02:28:04;76123.06;;;-144.65;100.00
5146;BME280;2591;48.144;15.152;2023-02-19T02:30:41;76119.00;;;-144.65;100.00
5146;BME280;2591;48.144;15.152;2023-02-19T02:33:15;76119.00;;;-144.65;100.00
5146;BME280;2591;48.144;15.152;2023-02-19T02:35:47;76110.84;;;-144.65;100.00
5146;BME280;2591;48.144;15.152;2023-02-19T02:38:19;76112.88;;;-144.65;100.00
5146;BME280;2591;48.144;15.152;2023-02-19T02:40:48;76110.84;;;-144.65;100.00
5146;BME280;2591;48.144;15.152;2023-02-19T02:43:16;76108.81;;;-144.65;100.00
5146;BME280;2591;48.144;15.152;2023-02-19T02:45:45;76110.84;;;-144.65;100.00
5146;BME280;2591;48.144;15.152;2023-02-19T02:48:22;76102.69;;;-144.65;100.00
5146;BME280;2591;48.144;15.152;2023-02-19T02:50:54;76108.81;;;-144.65;100.00
5146;BME280;2591;48.144;15.152;2023-02-19T02:53:25;76106.75;;;-144.65;100.00
5146;BME280;2591;48.144;15.152;2023-02-19T02:56:14;76094.53;;;-144.65;100.00
5146;BME280;2591;48.144;15.152;2023-02-19T02:58:43;76090.44;;;-144.65;100.00
5146;BME280;2591;48.144;15.152;2023-02-19T03:01:16;76094.53;;;-144.65;100.00
5146;BME280;2591;48.144;15.152;2023-02-19T03:04:07;76094.53;;;-144.65;100.00
5146;BME280;2591;48.144;15.152;2023-02-19T03:06:36;76096.56;;;-144.65;100.00
5146;BME280;2591;48.144;15.152;2023-02-19T03:09:10;76088.41;;;-144.65;100.00
5146;BME280;2591;48.144;15.152;2023-02-19T03:11:40;76088.41;;;-144.65;100.00
5146;BME280;2591;48.144;15.152;2023-02-19T03:14:32;76092.50;;;-144.65;100.00
5146;BME280;2591;48.144;15.152;2023-02-19T03:17:25;76090.44;;;-144.65;100.00
5146;BME280;2591;48.144;15.152;2023-02-19T03:20:13;76088.41;;;-144.65;100.00
5146;BME280;2591;48.144;15.152;2023-02-19T03:22:44;76086.38;;;-144.65;100.00
5146;BME280;2591;48.144;15.152;2023-02-19T03:25:17;76094.53;;;-144.65;100.00
5146;BME280;2591;48.144;15.152;2023-02-19T03:28:06;76086.38;;;-144.65;100.00
5146;BME280;2591;48.144;15.152;2023-02-19T03:30:39;76076.19;;;-144.65;100.00
5146;BME280;2591;48.144;15.152;2023-02-19T03:33:12;76078.22;;;-144.65;100.00
5146;BME280;2591;48.144;15.152;2023-02-19T03:35:44;76074.16;;;-144.65;100.00
5146;BME280;2591;48.144;15.152;2023-02-19T03:38:15;76082.28;;;-144.65;100.00
5146;BME280;2591;48.144;15.152;2023-02-19T03:40:52;76074.16;;;-144.65;100.00
5146;BME280;2591;48.144;15.152;2023-02-19T03:43:23;76066.00;;;-144.65;100.00
5146;BME280;2591;48.144;15.152;2023-02-19T03:45:58;76066.00;;;-144.65;100.00
5146;BME280;2591;48.144;15.152;2023-02-19T03:48:34;76066.00;;;-144.65;100.00
5146;BME280;2591;48.144;15.152;2023-02-19T03:51:23;76074.16;;;-144.65;100.00
5146;BME280;2591;48.144;15.152;2023-02-19T03:54:00;76076.19;;;-144.65;100.00
5146;BME280;2591;48.144;15.152;2023-02-19T03:56:33;76070.06;;;-144.65;100.00
5146;BME280;2591;48.144;15.152;2023-02-19T03:59:08;76053.75;;;-144.65;100.00
5146;BME280;2591;48.144;15.152;2023-02-19T04:01:41;76049.69;;;-144.65;100.00
5146;BME280;2591;48.144;15.152;2023-02-19T04:04:16;76053.75;;;-144.65;100.00
5146;BME280;2591;48.144;15.152;2023-02-19T04:06:49;76053.75;;;-144.65;100.00
5146;BME280;2591;48.144;15.152;2023-02-19T04:09:19;76049.69;;;-144.65;100.00
5146;BME280;2591;48.144;15.152;2023-02-19T04:11:49;76041.53;;;-144.65;100.00
5146;BME280;2591;48.144;15.152;2023-02-19T04:14:21;76043.56;;;-144.65;100.00
5146;BME280;2591;48.144;15.152;2023-02-19T04:16:52;76041.53;;;-144.65;100.00
5146;BME280;2591;48.144;15.152;2023-02-19T04:19:25;76031.31;;;-144.65;100.00
5146;BME280;2591;48.144;15.152;2023-02-19T04:21:55;76029.28;;;-144.65;100.00
5146;BME280;2591;48.144;15.152;2023-02-19T04:24:27;76035.41;;;-144.65;100.00
5146;BME280;2591;48.144;15.152;2023-02-19T04:26:56;76037.44;;;-144.65;100.00
5146;BME280;2591;48.144;15.152;2023-02-19T04:29:24;76049.69;;;-144.65;100.00
5146;BME280;2591;48.144;15.152;2023-02-19T04:31:52;76045.59;;;-144.65;100.00
5146;BME280;2591;48.144;15.152;2023-02-19T04:34:20;76037.44;;;-144.65;100.00
5146;BME280;2591;48.144;15.152;2023-02-19T04:36:49;76047.63;;;-144.65;100.00
5146;BME280;2591;48.144;15.152;2023-02-19T04:39:17;76045.59;;;-144.65;100.00
5146;BME280;2591;48.144;15.152;2023-02-19T04:41:44;76029.28;;;-144.65;100.00
5146;BME280;2591;48.144;15.152;2023-02-19T04:44:12;76031.31;;;-144.65;100.00
5146;BME280;2591;48.144;15.152;2023-02-19T04:46:40;76029.28;;;-144.65;100.00
5146;BME280;2591;48.144;15.152;2023-02-19T04:49:08;76027.25;;;-144.65;100.00
5146;BME280;2591;48.144;15.152;2023-02-19T04:51:37;76031.31;;;-144.65;100.00
5146;BME280;2591;48.144;15.152;2023-02-19T04:54:06;76027.25;;;-144.65;100.00
5146;BME280;2591;48.144;15.152;2023-02-19T04:56:34;76023.19;;;-144.65;100.00
5146;BME280;2591;48.144;15.152;2023-02-19T04:59:02;76017.06;;;-144.65;100.00
5146;BME280;2591;48.144;15.152;2023-02-19T05:01:30;76023.19;;;-144.65;100.00
5146;BME280;2591;48.144;15.152;2023-02-19T05:03:58;76021.13;;;-144.65;100.00
5146;BME280;2591;48.144;15.152;2023-02-19T05:06:26;76006.88;;;-144.65;100.00
5146;BME280;2591;48.144;15.152;2023-02-19T05:08:54;76017.06;;;-144.65;100.00
5146;BME280;2591;48.144;15.152;2023-02-19T05:11:23;76023.19;;;-144.65;100.00
5146;BME280;2591;48.144;15.152;2023-02-19T05:13:50;76025.22;;;-144.65;100.00
5146;BME280;2591;48.144;15.152;2023-02-19T05:16:18;76017.06;;;-144.65;100.00
5146;BME280;2591;48.144;15.152;2023-02-19T05:18:46;76025.22;;;-144.65;100.00
5146;BME280;2591;48.144;15.152;2023-02-19T05:21:14;76023.19;;;-144.65;100.00
5146;BME280;2591;48.144;15.152;2023-02-19T05:23:42;76027.25;;;-144.65;100.00
5146;BME280;2591;48.144;15.152;2023-02-19T05:26:12;76017.06;;;-144.65;100.00
5146;BME280;2591;48.144;15.152;2023-02-19T05:28:44;76010.94;;;-144.65;100.00
5146;BME280;2591;48.144;15.152;2023-02-19T05:31:12;76000.75;;;-144.65;100.00
5146;BME280;2591;48.144;15.152;2023-02-19T05:33:40;76000.75;;;-144.65;100.00
5146;BME280;2591;48.144;15.152;2023-02-19T05:36:11;75996.66;;;-144.65;100.00
5146;BME280;2591;48.144;15.152;2023-02-19T05:38:39;76000.75;;;-144.65;100.00
5146;BME280;2591;48.144;15.152;2023-02-19T05:41:09;76010.94;;;-144.65;100.00
5146;BME280;2591;48.144;15.152;2023-02-19T05:43:38;76021.13;;;-144.65;100.00
5146;BME280;2591;48.144;15.152;2023-02-19T05:46:09;76017.06;;;-144.65;100.00
5146;BME280;2591;48.144;15.152;2023-02-19T05:48:37;76012.97;;;-144.65;100.00
5146;BME280;2591;48.144;15.152;2023-02-19T05:51:08;76017.06;;;-144.65;100.00
5146;BME280;2591;48.144;15.152;2023-02-19T05:53:38;76008.91;;;-144.65;100.00
5146;BME280;2591;48.144;15.152;2023-02-19T05:56:23;76004.81;;;-144.65;100.00
5146;BME280;2591;48.144;15.152;2023-02-19T05:58:52;76004.81;;;-144.65;100.00
5146;BME280;2591;48.144;15.152;2023-02-19T06:01:24;76008.91;;;-144.65;100.00
5146;BME280;2591;48.144;15.152;2023-02-19T06:03:52;76017.06;;;-144.65;100.00
5146;BME280;2591;48.144;15.152;2023-02-19T06:06:24;76023.19;;;-144.65;100.00
5146;BME280;2591;48.144;15.152;2023-02-19T06:08:52;76029.28;;;-144.65;100.00
5146;BME280;2591;48.144;15.152;2023-02-19T06:11:20;76035.41;;;-144.65;100.00
5146;BME280;2591;48.144;15.152;2023-02-19T06:13:48;76039.47;;;-144.65;100.00
5146;BME280;2591;48.144;15.152;2023-02-19T06:16:17;76037.44;;;-144.65;100.00
5146;BME280;2591;48.144;15.152;2023-02-19T06:18:47;76041.53;;;-144.65;100.00
5146;BME280;2591;48.144;15.152;2023-02-19T06:21:16;76047.63;;;-144.65;100.00
5146;BME280;2591;48.144;15.152;2023-02-19T06:23:44;76053.75;;;-144.65;100.00
5146;BME280;2591;48.144;15.152;2023-02-19T06:26:14;76057.84;;;-144.65;100.00
5146;BME280;2591;48.144;15.152;2023-02-19T06:28:44;76061.91;;;-144.65;100.00
5146;BME280;2591;48.144;15.152;2023-02-19T06:31:13;76066.00;;;-144.65;100.00
5146;BME280;2591;48.144;15.152;2023-02-19T06:33:41;76066.00;;;-144.65;100.00
5146;BME280;2591;48.144;15.152;2023-02-19T06:36:13;76078.22;;;-144.65;100.00
5146;BME280;2591;48.144;15.152;2023-02-19T06:38:42;76070.06;;;-144.65;100.00
5146;BME280;2591;48.144;15.152;2023-02-19T06:41:10;76072.09;;;-144.65;100.00
5146;BME280;2591;48.144;15.152;2023-02-19T06:43:39;76074.16;;;-144.65;100.00
5146;BME280;2591;48.144;15.152;2023-02-19T06:46:10;76072.09;;;-144.65;100.00
5146;BME280;2591;48.144;15.152;2023-02-19T06:48:39;76072.09;;;-144.65;100.00
5146;BME280;2591;48.144;15.152;2023-02-19T06:51:12;76070.06;;;-144.65;100.00
5146;BME280;2591;48.144;15.152;2023-02-19T06:53:40;76078.22;;;-144.65;100.00
5146;BME280;2591;48.144;15.152;2023-02-19T06:56:21;76074.16;;;-144.65;100.00
5146;BME280;2591;48.144;15.152;2023-02-19T06:58:51;76076.19;;;-144.65;100.00
5146;BME280;2591;48.144;15.152;2023-02-19T07:01:19;76082.28;;;-144.65;100.00
5146;BME280;2591;48.144;15.152;2023-02-19T07:03:47;76070.06;;;-144.65;100.00
5146;BME280;2591;48.144;15.152;2023-02-19T07:06:16;76078.22;;;-144.65;100.00
5146;BME280;2591;48.144;15.152;2023-02-19T07:08:44;76057.84;;;-144.65;100.00
5146;BME280;2591;48.144;15.152;2023-02-19T07:11:12;76063.94;;;-144.65;100.00
5146;BME280;2591;48.144;15.152;2023-02-19T07:13:39;76074.16;;;-144.65;100.00
5146;BME280;2591;48.144;15.152;2023-02-19T07:16:08;76068.03;;;-144.65;100.00
5146;BME280;2591;48.144;15.152;2023-02-19T07:18:37;76059.88;;;-144.65;100.00
5146;BME280;2591;48.144;15.152;2023-02-19T07:21:07;76082.28;;;-144.65;100.00
5146;BME280;2591;48.144;15.152;2023-02-19T07:23:37;76072.09;;;-144.65;100.00
5146;BME280;2591;48.144;15.152;2023-02-19T07:26:08;76066.00;;;-144.65;100.00
5146;BME280;2591;48.144;15.152;2023-02-19T07:28:36;76061.91;;;-144.65;100.00
5146;BME280;2591;48.144;15.152;2023-02-19T07:31:04;76041.53;;;-144.65;100.00
5146;BME280;2591;48.144;15.152;2023-02-19T07:33:32;76043.56;;;-144.65;100.00
5146;BME280;2591;48.144;15.152;2023-02-19T07:36:00;76049.69;;;-144.65;100.00
5146;BME280;2591;48.144;15.152;2023-02-19T07:38:27;76057.84;;;-144.65;100.00
5146;BME280;2591;48.144;15.152;2023-02-19T07:40:57;76045.59;;;-144.65;100.00
5146;BME280;2591;48.144;15.152;2023-02-19T07:43:29;76053.75;;;-144.65;100.00
5146;BME280;2591;48.144;15.152;2023-02-19T07:45:57;76061.91;;;-144.65;100.00
5146;BME280;2591;48.144;15.152;2023-02-19T07:48:25;76049.69;;;-144.65;100.00
5146;BME280;2591;48.144;15.152;2023-02-19T07:50:54;76053.75;;;-144.65;100.00
5146;BME280;2591;48.144;15.152;2023-02-19T07:53:23;76029.28;;;-144.65;100.00
5146;BME280;2591;48.144;15.152;2023-02-19T07:55:51;76035.41;;;-144.65;100.00
5146;BME280;2591;48.144;15.152;2023-02-19T07:58:20;76051.72;;;-144.65;100.00
5146;BME280;2591;48.144;15.152;2023-02-19T08:00:48;76061.91;;;-144.65;100.00
5146;BME280;2591;48.144;15.152;2023-02-19T08:03:16;76057.84;;;-144.65;100.00
5146;BME280;2591;48.144;15.152;2023-02-19T08:05:42;76051.72;;;-144.65;100.00
5146;BME280;2591;48.144;15.152;2023-02-19T08:08:12;76035.41;;;-144.65;100.00
5146;BME280;2591;48.144;15.152;2023-02-19T08:10:40;76037.44;;;-144.65;100.00
5146;BME280;2591;48.144;15.152;2023-02-19T08:13:29;76039.47;;;-144.65;100.00
5146;BME280;2591;48.144;15.152;2023-02-19T08:16:09;76043.56;;;-144.65;100.00
5146;BME280;2591;48.144;15.152;2023-02-19T08:18:47;76035.41;;;-144.65;100.00
5146;BME280;2591;48.144;15.152;2023-02-19T08:21:15;76049.69;;;-144.65;100.00
5146;BME280;2591;48.144;15.152;2023-02-19T08:23:44;76041.53;;;-144.65;100.00
5146;BME280;2591;48.144;15.152;2023-02-19T08:26:16;76057.84;;;-144.65;100.00
5146;BME280;2591;48.144;15.152;2023-02-19T08:28:45;76049.69;;;-144.65;100.00
5146;BME280;2591;48.144;15.152;2023-02-19T08:31:14;76035.41;;;-144.65;100.00
5146;BME280;2591;48.144;15.152;2023-02-19T08:33:42;76029.28;;;-144.65;100.00
5146;BME280;2591;48.144;15.152;2023-02-19T08:36:10;76012.97;;;-144.65;100.00
5146;BME280;2591;48.144;15.152;2023-02-19T08:38:38;76017.06;;;-144.65;100.00
5146;BME280;2591;48.144;15.152;2023-02-19T08:41:07;76023.19;;;-144.65;100.00
5146;BME280;2591;48.144;15.152;2023-02-19T08:43:35;76015.03;;;-144.65;100.00
5146;BME280;2591;48.144;15.152;2023-02-19T08:46:06;76010.94;;;-144.65;100.00
5146;BME280;2591;48.144;15.152;2023-02-19T08:48:36;76023.19;;;-144.65;100.00
5146;BME280;2591;48.144;15.152;2023-02-19T08:51:06;76023.19;;;-144.65;100.00
5146;BME280;2591;48.144;15.152;2023-02-19T08:53:36;76025.22;;;-144.65;100.00
5146;BME280;2591;48.144;15.152;2023-02-19T08:56:05;76039.47;;;-144.65;100.00
5146;BME280;2591;48.144;15.152;2023-02-19T08:58:33;76045.59;;;-144.65;100.00
5146;BME280;2591;48.144;15.152;2023-02-19T09:01:01;76045.59;;;-144.65;100.00
5146;BME280;2591;48.144;15.152;2023-02-19T09:03:30;76061.91;;;-144.65;100.00
5146;BME280;2591;48.144;15.152;2023-02-19T09:05:58;76074.16;;;-144.65;100.00
5146;BME280;2591;48.144;15.152;2023-02-19T09:08:26;76082.28;;;-144.65;100.00
5146;BME280;2591;48.144;15.152;2023-02-19T09:10:58;76078.22;;;-144.65;100.00
5146;BME280;2591;48.144;15.152;2023-02-19T09:13:26;76090.44;;;-144.65;100.00
5146;BME280;2591;48.144;15.152;2023-02-19T09:15:53;76094.53;;;-144.65;100.00
5146;BME280;2591;48.144;15.152;2023-02-19T09:18:23;76098.59;;;-144.65;100.00
5146;BME280;2591;48.144;15.152;2023-02-19T09:20:52;76098.59;;;-144.65;100.00
5146;BME280;2591;48.144;15.152;2023-02-19T09:23:20;76114.91;;;-144.65;100.00
5146;BME280;2591;48.144;15.152;2023-02-19T09:25:47;76127.16;;;-144.65;100.00
5146;BME280;2591;48.144;15.152;2023-02-19T09:28:15;76123.06;;;-144.65;100.00
5146;BME280;2591;48.144;15.152;2023-02-19T09:30:43;76131.22;;;-144.65;100.00
5146;BME280;2591;48.144;15.152;2023-02-19T09:33:11;76110.84;;;-144.65;100.00
5146;BME280;2591;48.144;15.152;2023-02-19T09:35:39;76119.00;;;-144.65;100.00
5146;BME280;2591;48.144;15.152;2023-02-19T09:38:08;76098.59;;;-144.65;100.00
5146;BME280;2591;48.144;15.152;2023-02-19T09:40:37;76098.59;;;-144.65;100.00
5146;BME280;2591;48.144;15.152;2023-02-19T09:43:05;76078.22;;;-144.65;100.00
5146;BME280;2591;48.144;15.152;2023-02-19T09:45:35;76094.53;;;-144.65;100.00
5146;BME280;2591;48.144;15.152;2023-02-19T09:48:04;76090.44;;;-144.65;100.00
5146;BME280;2591;48.144;15.152;2023-02-19T09:50:35;76106.75;;;-144.65;100.00
5146;BME280;2591;48.144;15.152;2023-02-19T09:53:13;76098.59;;;-144.65;100.00
5146;BME280;2591;48.144;15.152;2023-02-19T09:55:43;76125.13;;;-144.65;100.00
5146;BME280;2591;48.144;15.152;2023-02-19T09:58:21;76119.00;;;-144.65;100.00
5146;BME280;2591;48.144;15.152;2023-02-19T10:00:54;76139.38;;;-144.65;100.00
5146;BME280;2591;48.144;15.152;2023-02-19T10:03:25;76112.88;;;-144.65;100.00
5146;BME280;2591;48.144;15.152;2023-02-19T10:05:57;76078.22;;;-144.65;100.00
5146;BME280;2591;48.144;15.152;2023-02-19T10:08:31;76049.69;;;-144.65;100.00
5146;BME280;2591;48.144;15.152;2023-02-19T10:11:01;76039.47;;;-144.65;100.00
5146;BME280;2591;48.144;15.152;2023-02-19T10:13:33;76023.19;;;-144.65;100.00
5146;BME280;2591;48.144;15.152;2023-02-19T10:16:04;76021.13;;;-144.65;100.00
5146;BME280;2591;48.144;15.152;2023-02-19T10:18:37;75992.59;;;-144.65;100.00
5146;BME280;2591;48.144;15.152;2023-02-19T10:21:09;75976.28;;;-144.65;100.00
5146;BME280;2591;48.144;15.152;2023-02-19T10:23:40;75972.22;;;-144.65;100.00
5146;BME280;2591;48.144;15.152;2023-02-19T10:26:09;75968.13;;;-144.65;100.00
5146;BME280;2591;48.144;15.152;2023-02-19T10:28:37;75935.50;;;-144.65;100.00
5146;BME280;2591;48.144;15.152;2023-02-19T10:31:11;75927.34;;;-144.65;100.00
5146;BME280;2591;48.144;15.152;2023-02-19T10:33:48;75964.06;;;-144.65;100.00
5146;BME280;2591;48.144;15.152;2023-02-19T10:36:23;75959.97;;;-144.65;100.00
5146;BME280;2591;48.144;15.152;2023-02-19T10:38:54;75933.47;;;-144.65;100.00
5146;BME280;2591;48.144;15.152;2023-02-19T10:41:23;75904.94;;;-144.65;100.00
5146;BME280;2591;48.144;15.152;2023-02-19T10:43:55;75909.00;;;-144.65;97.43
5146;BME280;2591;48.144;15.152;2023-02-19T10:46:27;75904.94;;;-144.65;95.41
5146;BME280;2591;48.144;15.152;2023-02-19T10:48:58;75935.50;;;-144.65;94.61
5146;BME280;2591;48.144;15.152;2023-02-19T10:51:31;75955.91;;;-144.65;95.39
5146;BME280;2591;48.144;15.152;2023-02-19T10:54:05;75953.84;;;-144.65;97.86
5146;BME280;2591;48.144;15.152;2023-02-19T10:56:34;75943.66;;;-144.65;95.59
5146;BME280;2591;48.144;15.152;2023-02-19T10:59:20;75943.66;;;-144.65;92.95
5146;BME280;2591;48.144;15.152;2023-02-19T11:01:56;75931.44;;;-144.65;94.51
5146;BME280;2591;48.144;15.152;2023-02-19T11:04:25;75915.13;;;-144.65;94.07
5146;BME280;2591;48.144;15.152;2023-02-19T11:06:54;75856.00;;;-144.65;92.93
5146;BME280;2591;48.144;15.152;2023-02-19T11:09:27;75825.41;;;-144.65;92.19
5146;BME280;2591;48.144;15.152;2023-02-19T11:11:56;75819.31;;;-144.65;91.06
5146;BME280;2591;48.144;15.152;2023-02-19T11:14:26;75807.06;;;-144.65;89.34
5146;BME280;2591;48.144;15.152;2023-02-19T11:16:56;75805.03;;;-144.65;86.93
5146;BME280;2591;48.144;15.152;2023-02-19T11:19:28;75809.13;;;-144.65;85.32
5146;BME280;2591;48.144;15.152;2023-02-19T11:21:57;75811.16;;;-144.65;83.49
5146;BME280;2591;48.144;15.152;2023-02-19T11:24:30;75829.50;;;-144.65;83.82
5146;BME280;2591;48.144;15.152;2023-02-19T11:27:02;75849.88;;;-144.65;83.18
5146;BME280;2591;48.144;15.152;2023-02-19T11:29:31;75870.28;;;-144.65;82.86
5146;BME280;2591;48.144;15.152;2023-02-19T11:32:24;75866.19;;;-144.65;84.45
5146;BME280;2591;48.144;15.152;2023-02-19T11:35:12;75874.34;;;-144.65;84.34
5146;BME280;2591;48.144;15.152;2023-02-19T11:37:52;75902.88;;;-144.65;83.85
5146;BME280;2591;48.144;15.152;2023-02-19T11:40:27;75913.09;;;-144.65;85.31
5146;BME280;2591;48.144;15.152;2023-02-19T11:42:59;75913.09;;;-144.65;85.19
5146;BME280;2591;48.144;15.152;2023-02-19T11:45:36;75931.44;;;-144.65;86.22
5146;BME280;2591;48.144;15.152;2023-02-19T11:48:27;75919.19;;;-144.65;85.03
5146;BME280;2591;48.144;15.152;2023-02-19T11:51:17;75949.78;;;-144.65;85.77
5146;BME280;2591;48.144;15.152;2023-02-19T11:53:59;75947.75;;;-144.65;86.81
5146;BME280;2591;48.144;15.152;2023-02-19T11:56:34;75951.81;;;-144.65;85.61
5146;BME280;2591;48.144;15.152;2023-02-19T11:59:04;75943.66;;;-144.65;83.92
5146;BME280;2591;48.144;15.152;2023-02-19T12:01:56;75951.81;;;-144.65;82.85
5146;BME280;2591;48.144;15.152;2023-02-19T12:04:43;75935.50;;;-144.65;82.06
5146;BME280;2591;48.144;15.152;2023-02-19T12:07:27;75939.59;;;-144.65;82.09
5146;BME280;2591;48.144;15.152;2023-02-19T12:10:06;75935.50;;;-144.65;81.87
5146;BME280;2591;48.144;15.152;2023-02-19T12:12:50;75927.34;;;-144.65;82.02
5146;BME280;2591;48.144;15.152;2023-02-19T12:15:37;75933.47;;;-144.65;82.39
5146;BME280;2591;48.144;15.152;2023-02-19T12:18:30;75931.44;;;-144.65;83.87
5146;BME280;2591;48.144;15.152;2023-02-19T12:21:14;75921.25;;;-144.65;81.09
5146;BME280;2591;48.144;15.152;2023-02-19T12:26:38;75939.59;;;-144.65;80.55
5146;BME280;2591;48.144;15.152;2023-02-19T12:29:22;75957.94;;;-144.65;80.90
5146;BME280;2591;48.144;15.152;2023-02-19T12:32:10;75955.91;;;-144.65;82.23
5146;BME280;2591;48.144;15.152;2023-02-19T12:34:55;75959.97;;;-144.65;83.81
5146;BME280;2591;48.144;15.152;2023-02-19T12:37:36;75972.22;;;-144.65;83.59
5146;BME280;2591;48.144;15.152;2023-02-19T12:40:16;75984.44;;;-144.65;83.71
5146;BME280;2591;48.144;15.152;2023-02-19T12:42:58;75978.31;;;-144.65;83.69
5146;BME280;2591;48.144;15.152;2023-02-19T12:45:34;75959.97;;;-144.65;82.68
5146;BME280;2591;48.144;15.152;2023-02-19T12:48:06;75980.34;;;-144.65;82.92
5146;BME280;2591;48.144;15.152;2023-02-19T12:50:39;75992.59;;;-144.65;82.05
5146;BME280;2591;48.144;15.152;2023-02-19T12:53:13;75980.34;;;-144.65;81.01
5146;BME280;2591;48.144;15.152;2023-02-19T12:55:45;75982.41;;;-144.65;79.62
5146;BME280;2591;48.144;15.152;2023-02-19T12:58:19;76008.91;;;-144.65;80.39
5146;BME280;2591;48.144;15.152;2023-02-19T13:00:52;75998.72;;;-144.65;81.09
5146;BME280;2591;48.144;15.152;2023-02-19T13:03:29;76002.78;;;-144.65;81.78
5146;BME280;2591;48.144;15.152;2023-02-19T13:06:03;76017.06;;;-144.65;82.41
5146;BME280;2591;48.144;15.152;2023-02-19T13:08:39;76012.97;;;-144.65;81.85
5146;BME280;2591;48.144;15.152;2023-02-19T13:11:32;75996.66;;;-144.65;82.07
5146;BME280;2591;48.144;15.152;2023-02-19T13:14:06;75988.50;;;-144.65;82.49